Terminal Aerodrome Forecast
Issued by NWS

Home | Current Version | Previous Version | Text Only | Print | Product List | Glossary On
Versions: 1 2 3 4 5 6 7 8 9 10 11 12 13
000
FTUS43 KOAX 251120
TAFSNY
TAF
KSNY 251120Z 2512/2612 31008KT P6SM VCSH SCT100 BKN140
     FM251700 34010KT P6SM VCSH BKN100
     FM252000 01010KT P6SM TSRA SCT060 BKN080CB
     FM260500 34007KT P6SM VCSH BKN050=

USA.gov is the U.S. government's official web portal to all federal, state and local government web resources and services.